Monticello, Louisiana
Current Conditions -  °F | °C
As of 11:53 AM on Sunday 25 Jan 2015 (Local Time) from KTVR Reporting Station
Clear Clear  
Wind Chill: 62°   Ceiling: Unl
Heat Index: 62°   Visibility: 10mi
Dew Point: 41°   Wind: 9mph
Humidity: 46%   Direction: 230°SW
Pressure: 29.84"   Gusts: 18mph
Location:  32.8408°N, 91.231°W
Report Text: KTVR 251753Z AUTO 23008G16KT 10SM CLR 17/05 A2984 RMK AO2 SLP112 T01670050 10167 20039 58025
Loading
Personal Weather Stations






























Interactive Weather Map New forecast layout! Learn more

10-Day Weather Forecast

Advertisements
Track Severe Weather on mobile